Halfway's Hourly Summary for Saturday, March 18, 2017
Hour Temp
(f)
RH
(%)
Solar Rad.
(MJ/m2)
Rainfall
(in)
Wind
(mph)
3/18/2017 12:00 AM 57 45 0 0 9.52
3/18/2017 1:00 AM 55 50 0 0 7.78
3/18/2017 2:00 AM 52 57 0 0 5.52
3/18/2017 3:00 AM 50 64 0 0 5.37
3/18/2017 4:00 AM 48 71 0 0 5.94
3/18/2017 5:00 AM 48 73 0 0 7.08
3/18/2017 6:00 AM 54 77 0 0 10.66
3/18/2017 7:00 AM 54 88 0 0 7.93
3/18/2017 8:00 AM 54 93 0 0 7.56
3/18/2017 9:00 AM 55 94 0.1 0 8.39
3/18/2017 10:00 AM 55 93 0.36 0 6.13
3/18/2017 11:00 AM 56 88 0.65 0 5.23
3/18/2017 12:00 PM 58 79 0.96 0 4.95
3/18/2017 1:00 PM 64 63 2.17 0 3.03
3/18/2017 2:00 PM 68 57 2.82 0 3.57
3/18/2017 3:00 PM 72 48 3.03 0 4.71
3/18/2017 4:00 PM 75 43 2.72 0 6.84
3/18/2017 5:00 PM 77 37 2.34 0 9.15
3/18/2017 6:00 PM 78 32 1.77 0 10.76
3/18/2017 7:00 PM 76 30 0.59 0 9.78
3/18/2017 8:00 PM 71 36 0.12 0 4.64
3/18/2017 9:00 PM 68 42 0 0 6.77
3/18/2017 10:00 PM 65 45 0 0 6.16
3/18/2017 11:00 PM 61 49 0 0 5.47
Data Summary 61 60 17.63 0.00 6.79